Details for UPS at WMKK




Go Back


Latest METAR
Local Time

WMKK 240000Z VRB03KT 7000 FEW030 BKN140 BKN280 25/24 Q1010 NOSIG

24/02/2018, 08:18:26

Description
Results
UPS Logo
Number of Pilots based at WMKK
0 Pilots Based here
Number of UPS Flights Departed from WMKK
0 Flights Departed
Number of UPS Flights Arrived at WMKK
0 Flights Arrived
Number of UPS Schedules Departing from WMKK
7 Schedules
Number of UPS Schedules Arriving at WMKK
7 Schedules
Number of UPS Schedules Departing from WMKK availible today
0 Schedules Today
Number of UPS Schedules Arriving at WMKK availible today
0 Schedules Today
Average Landing Rate at WMKK
-254 fpm
UPS Average Landing Rate at WMKK
0 fpm
Total Fuel Purchased at WMKK by UPS
0.00 kgs / 0.00 lbs

Pilots Based at WMKK


Pilot ID
Pilot Name
Pilot Rank
No. of Flights
No. of Flying Hours
There are no pilots assigned to this hub!   Will you be the first?
Content